Flight Track Log - Related Links

Times and Time Zones

All times are in EDT time to prevent confusion due to time zone crossing. See the ACA4 flight status page for this flight to view local times or setup timezone preferences in your user account.

Time Position Orientation Groundspeed Altitude Reporting Facility
EDT Latitude Longitude Course Direction KTS MPH feet Rate Location/Type
Tue 04:34:58 AM 35.7190 140.4084 150° Southeast 186 214 2,700  Level FlightAware ADS-B (EGKK / LGW)
Tue 04:35:21 AM 35.6954 140.4251 150° Southeast 189 217 3,600 1,857 Climbing FlightAware ADS-B
Tue 04:35:40 AM 35.6833 140.4339 150° Southeast 206 237 4,000 1,135 Climbing FlightAware ADS-B (EGKK / LGW)
Tue 04:35:58 AM 35.6658 140.4464 150° Southeast 232 267 4,300 1,650 Climbing FlightAware ADS-B (EGKK / LGW)
Tue 04:36:20 AM 35.6432 140.4628 150° Southeast 245 282 5,100 1,909 Climbing FlightAware ADS-B
Tue 04:36:42 AM 35.6233 140.4773 149° Southeast 261 300 5,700 2,053 Climbing FlightAware ADS-B (EGKK / LGW)
Tue 04:36:58 AM 35.6067 140.4892 149° Southeast 269 310 6,400 2,516 Climbing FlightAware ADS-B (EGKK / LGW)
Tue 04:37:13 AM 35.5910 140.5017 140° Southeast 276 318 7,000 2,880 Climbing FlightAware ADS-B (EGKK / LGW)
Tue 04:37:23 AM 35.5801 140.5174 126° Southeast 284 327 7,600 2,800 Climbing FlightAware ADS-B
Tue 04:37:43 AM 35.5688 140.5432 110° East 296 341 8,400 2,550 Climbing FlightAware ADS-B (EGKK / LGW)
Tue 04:38:03 AM 35.5628 140.5790 100° East 303 349 9,300 2,300 Climbing FlightAware ADS-B
Tue 04:38:43 AM 35.5534 140.6450 99° East 320 368 10,700 1,831 Climbing FlightAware ADS-B (EGKK / LGW)
Tue 04:39:02 AM 35.5482 140.6872 96° East 346 398 11,100 1,200 Climbing FlightAware ADS-B
Tue 04:39:43 AM 35.5494 140.7675 89° East 385 443 11,900 1,099 Climbing FlightAware ADS-B (EGKK / LGW)
Tue 04:40:13 AM 35.5499 140.8323 90° East 416 479 12,400 1,475 Climbing FlightAware ADS-B (EGKK / LGW)
Tue 04:40:44 AM 35.5503 140.9106 90° East 431 496 13,400 2,066 Climbing FlightAware ADS-B (EGKK / LGW)
Tue 04:41:14 AM 35.5508 140.9836 89° East 437 503 14,500 2,301 Climbing FlightAware ADS-B (EGKK / LGW)
Tue 04:41:57 AM 35.5515 141.0913 90° East 446 513 16,200 2,160 Climbing FlightAware ADS-B (EGKK / LGW)
Tue 04:42:29 AM 35.5512 141.1703 91° East 453 521 17,200 1,935 Climbing FlightAware ADS-B (EGKK / LGW)
Tue 04:42:59 AM 35.5571 141.2429 79° East 465 535 18,200 2,919 Climbing FlightAware ADS-B (EGKK / LGW)
Tue 04:43:43 AM 35.5755 141.3630 79° East 436 502 20,800 3,000 Climbing FlightAware ADS-B (EGKK / LGW)
Tue 04:44:19 AM 35.5788 141.4516 101° East 423 487 22,200 2,136 Climbing FlightAware ADS-B
Tue 04:44:42 AM 35.5653 141.5069 109° East 421 484 22,900 1,500 Climbing FlightAware ADS-B
Tue 04:45:15 AM 35.5443 141.5781 110° East 435 501 23,600 1,247 Climbing FlightAware ADS-B (EGKK / LGW)
Tue 04:45:59 AM 35.5129 141.6830 110° East 449 517 24,500 1,280 Climbing FlightAware ADS-B (EGKK / LGW)
Tue 04:46:30 AM 35.4912 141.7554 109° East 454 522 25,200 1,174 Climbing FlightAware ADS-B (EGKK / LGW)
Tue 04:46:45 AM 35.4865 141.7776 96° East 464 534 25,400 1,200 Climbing FlightAware ADS-B (EGKK / LGW)
Tue 04:47:00 AM 35.4874 141.8327 81° East 469 540 25,800 1,200 Climbing FlightAware ADS-B (EGKK / LGW)
Tue 04:47:30 AM 35.5103 141.8994 56° Northeast 477 549 26,300 933 Climbing FlightAware ADS-B (EGKK / LGW)
Tue 04:47:45 AM 35.5359 141.9342 45° Northeast 477 549 26,500 977 Climbing FlightAware ADS-B (EGKK / LGW)
Tue 04:48:13 AM 35.5840 141.9937 54° Northeast 472 543 27,000 1,655 Climbing FlightAware ADS-B
Tue 04:48:43 AM 35.6201 142.0373 44° Northeast 475 547 28,100 1,662 Climbing FlightAware ADS-B (EGKK / LGW)
Tue 04:49:18 AM 35.6856 142.1158 45° Northeast 477 549 28,800 1,091 Climbing FlightAware ADS-B
Tue 04:49:49 AM 35.7334 142.1736 45° Northeast 480 552 29,300 882 Climbing FlightAware ADS-B (EGKK / LGW)
Tue 04:50:26 AM 35.6873 142.1179 45° Northeast 481 554 29,800 771 Climbing FlightAware ADS-B (EGKK / LGW)
Tue 04:51:38 AM 35.9132 142.3946 45° Northeast 504 580 30,700 529 Climbing FlightAware ADS-B
Tue 04:52:42 AM 36.0182 142.5242 45° Northeast 504 580 31,000 454 Climbing FlightAware ADS-B
Tue 04:54:43 AM 36.2148 142.7682 46° Northeast 502 578 32,100 291 Climbing FlightAware ADS-B
Tue 04:59:35 AM 36.6910 143.3664 46° Northeast 508 585 33,000 23 Climbing FlightAware ADS-B
Tue 05:02:00 AM 36.9239 143.6682 46° Northeast  Level Estimated
Tue 05:03:00 AM 37.0200 143.7936 46° Northeast  Level Estimated
Tue 05:04:00 AM 37.1160 143.9194 46° Northeast  Level Estimated
Tue 05:05:00 AM 37.2118 144.0454 46° Northeast  Level Estimated
Tue 05:06:00 AM 37.3075 144.1718 46° Northeast  Level Estimated
Tue 05:07:00 AM 37.3801 144.3207 58° Northeast  Level FlightAware Approximate
Tue 05:08:00 AM 37.4526 144.4698 59° Northeast  Level FlightAware Approximate
Tue 05:09:00 AM 37.5479 144.5971 43° Northeast  Level Estimated
Tue 05:10:00 AM 37.6493 144.7168 43° Northeast  Level FlightAware Approximate
Tue 05:11:00 AM 37.7506 144.8369 43° Northeast  Level FlightAware Approximate
Tue 05:12:00 AM 37.8517 144.9572 43° Northeast  Level FlightAware Approximate
Tue 05:13:00 AM 37.9528 145.0779 43° Northeast  Level FlightAware Approximate
Tue 05:14:00 AM 38.0537 145.1990 43° Northeast  Level FlightAware Approximate
Tue 05:15:00 AM 38.1545 145.3203 43° Northeast  Level FlightAware Approximate
Tue 05:16:00 AM 38.2551 145.4420 43° Northeast  Level FlightAware Approximate
Tue 05:17:00 AM 38.3493 145.5720 38° Northeast  Level Estimated
Tue 05:18:00 AM 38.4434 145.7024 43° Northeast  Level Estimated
Tue 05:19:00 AM 38.5462 145.8217 42° Northeast  Level FlightAware Approximate
Tue 05:20:00 AM 38.6488 145.9414 42° Northeast  Level FlightAware Approximate
Tue 05:21:00 AM 38.7513 146.0614 42° Northeast  Level FlightAware Approximate
Tue 05:22:00 AM 38.8537 146.1817 42° Northeast  Level FlightAware Approximate
Tue 05:23:00 AM 38.9559 146.3024 43° Northeast  Level FlightAware Approximate
Tue 05:24:00 AM 39.0581 146.4234 43° Northeast  Level FlightAware Approximate
Tue 05:25:00 AM 39.1601 146.5448 43° Northeast  Level FlightAware Approximate
Tue 05:26:00 AM 39.2620 146.6666 43° Northeast  Level FlightAware Approximate
Tue 05:27:00 AM 39.3637 146.7887 43° Northeast  Level FlightAware Approximate
Tue 05:28:00 AM 39.4654 146.9112 43° Northeast  Level FlightAware Approximate
Tue 05:29:00 AM 39.5669 147.0340 43° Northeast  Level FlightAware Approximate
Tue 05:30:00 AM 39.6683 147.1572 43° Northeast  Level FlightAware Approximate
Tue 05:31:00 AM 39.7695 147.2807 43° Northeast  Level FlightAware Approximate
Tue 05:32:00 AM 39.8706 147.4046 43° Northeast  Level FlightAware Approximate
Tue 05:33:00 AM 39.9716 147.5289 43° Northeast  Level FlightAware Approximate
Tue 05:34:00 AM 40.0724 147.6535 43° Northeast  Level FlightAware Approximate
Tue 05:35:00 AM 40.1731 147.7785 43° Northeast  Level FlightAware Approximate
Tue 05:36:00 AM 40.2737 147.9039 44° Northeast  Level FlightAware Approximate
Tue 05:37:00 AM 40.3742 148.0296 44° Northeast  Level FlightAware Approximate
Tue 05:38:00 AM 40.4745 148.1557 44° Northeast  Level FlightAware Approximate
Tue 05:39:00 AM 40.5746 148.2822 44° Northeast  Level FlightAware Approximate
Tue 05:40:00 AM 40.6747 148.4091 44° Northeast  Level FlightAware Approximate
Tue 05:41:00 AM 40.7746 148.5364 44° Northeast  Level FlightAware Approximate
Tue 05:42:00 AM 40.8743 148.6640 44° Northeast  Level FlightAware Approximate
Tue 05:43:00 AM 40.9739 148.7921 44° Northeast  Level FlightAware Approximate
Tue 05:44:00 AM 41.0639 148.9322 45° Northeast  Level Estimated
Tue 05:45:00 AM 41.1623 149.0622 45° Northeast  Level FlightAware Approximate
Tue 05:46:00 AM 41.2606 149.1927 45° Northeast  Level FlightAware Approximate
Tue 05:47:00 AM 41.3587 149.3235 45° Northeast  Level FlightAware Approximate
Tue 05:48:00 AM 41.4566 149.4547 45° Northeast  Level FlightAware Approximate
Tue 05:49:00 AM 41.5544 149.5863 45° Northeast  Level FlightAware Approximate
Tue 05:50:00 AM 41.6521 149.7183 45° Northeast  Level FlightAware Approximate
Tue 05:51:00 AM 41.7496 149.8507 45° Northeast  Level FlightAware Approximate
Tue 05:52:00 AM 41.8470 149.9835 45° Northeast  Level FlightAware Approximate
Tue 05:53:00 AM 41.9442 150.1167 46° Northeast  Level FlightAware Approximate
Tue 05:54:00 AM 42.0412 150.2503 46° Northeast  Level FlightAware Approximate
Tue 05:55:00 AM 42.1381 150.3843 46° Northeast  Level FlightAware Approximate
Tue 05:56:00 AM 42.2348 150.5187 46° Northeast  Level FlightAware Approximate
Tue 05:57:00 AM 42.3314 150.6536 46° Northeast  Level FlightAware Approximate
Tue 05:58:00 AM 42.4278 150.7888 46° Northeast  Level FlightAware Approximate
Tue 05:59:00 AM 42.5241 150.9245 46° Northeast  Level FlightAware Approximate
Tue 06:00:00 AM 42.6202 151.0606 46° Northeast  Level FlightAware Approximate
Tue 06:01:00 AM 42.7161 151.1971 46° Northeast  Level FlightAware Approximate
Tue 06:02:00 AM 42.8119 151.3341 46° Northeast  Level FlightAware Approximate
Tue 06:03:00 AM 42.9075 151.4714 46° Northeast  Level FlightAware Approximate
Tue 06:04:00 AM 43.0030 151.6092 47° Northeast  Level FlightAware Approximate
Tue 06:05:00 AM 43.0983 151.7474 47° Northeast  Level FlightAware Approximate
Tue 06:06:00 AM 43.1934 151.8861 47° Northeast  Level FlightAware Approximate
Tue 06:07:00 AM 43.2883 152.0252 47° Northeast  Level FlightAware Approximate
Tue 06:08:00 AM 43.3831 152.1647 47° Northeast  Level FlightAware Approximate
Tue 06:09:00 AM 43.4777 152.3046 47° Northeast  Level FlightAware Approximate
Tue 06:10:00 AM 43.5721 152.4450 47° Northeast  Level FlightAware Approximate
Tue 06:11:00 AM 43.6664 152.5858 47° Northeast  Level FlightAware Approximate
Tue 06:12:00 AM 43.7605 152.7271 47° Northeast  Level FlightAware Approximate
Tue 06:13:00 AM 43.8544 152.8688 47° Northeast  Level FlightAware Approximate
Tue 06:14:00 AM 43.9481 153.0110 47° Northeast  Level FlightAware Approximate
Tue 06:15:00 AM 44.0417 153.1536 48° Northeast  Level FlightAware Approximate
Tue 06:16:00 AM 44.1351 153.2967 48° Northeast  Level FlightAware Approximate
Tue 06:17:00 AM 44.2283 153.4402 48° Northeast  Level FlightAware Approximate
Tue 06:18:00 AM 44.3213 153.5842 48° Northeast  Level FlightAware Approximate
Tue 06:19:00 AM 44.4142 153.7286 48° Northeast  Level FlightAware Approximate
Tue 06:20:00 AM 44.5068 153.8735 48° Northeast  Level FlightAware Approximate
Tue 06:21:00 AM 44.5993 154.0188 48° Northeast  Level FlightAware Approximate
Tue 06:22:00 AM 44.6916 154.1646 48° Northeast  Level FlightAware Approximate
Tue 06:23:00 AM 44.7837 154.3109 48° Northeast  Level FlightAware Approximate
Tue 06:24:00 AM 44.8659 154.4686 48° Northeast  Level Estimated
Tue 06:25:00 AM 44.9597 154.6133 47° Northeast  Level FlightAware Approximate
Tue 06:26:00 AM 45.0532 154.7584 48° Northeast  Level FlightAware Approximate
Tue 06:27:00 AM 45.1466 154.9039 48° Northeast  Level FlightAware Approximate
Tue 06:28:00 AM 45.2398 155.0500 48° Northeast  Level FlightAware Approximate
Tue 06:29:00 AM 45.3329 155.1965 48° Northeast  Level FlightAware Approximate
Tue 06:30:00 AM 45.4137 155.3572 50° Northeast  Level Estimated
Tue 06:31:00 AM 45.5036 155.5081 50° Northeast  Level FlightAware Approximate
Tue 06:32:00 AM 45.5933 155.6594 50° Northeast  Level FlightAware Approximate
Tue 06:33:00 AM 45.6828 155.8113 50° Northeast  Level FlightAware Approximate
Tue 06:34:00 AM 45.7721 155.9636 50° Northeast  Level FlightAware Approximate
Tue 06:35:00 AM 45.8615 156.1171 50° Northeast  Level FlightAware Approximate
Tue 06:36:00 AM 45.9507 156.2710 50° Northeast  Level FlightAware Approximate
Tue 06:37:00 AM 46.0398 156.4254 50° Northeast  Level FlightAware Approximate
Tue 06:38:00 AM 46.1286 156.5803 50° Northeast  Level FlightAware Approximate
Tue 06:39:00 AM 46.2172 156.7358 50° Northeast  Level FlightAware Approximate
Tue 06:40:00 AM 46.3056 156.8917 51° Northeast  Level FlightAware Approximate
Tue 06:41:00 AM 46.3842 157.0585 51° Northeast  Level Estimated
Tue 06:42:00 AM 46.4721 157.2155 51° Northeast  Level FlightAware Approximate
Tue 06:43:00 AM 46.5598 157.3730 51° Northeast  Level FlightAware Approximate
Tue 06:44:00 AM 46.6473 157.5309 51° Northeast  Level FlightAware Approximate
Tue 06:45:00 AM 46.7345 157.6894 51° Northeast  Level FlightAware Approximate
Tue 06:46:00 AM 46.8215 157.8485 51° Northeast  Level FlightAware Approximate
Tue 06:47:00 AM 46.9084 158.0080 51° Northeast  Level FlightAware Approximate
Tue 06:48:00 AM 46.9950 158.1680 52° Northeast  Level FlightAware Approximate
Tue 06:49:00 AM 47.0813 158.3286 52° Northeast  Level FlightAware Approximate
Tue 06:50:00 AM 47.1675 158.4897 52° Northeast  Level FlightAware Approximate
Tue 06:51:00 AM 47.2534 158.6513 52° Northeast  Level FlightAware Approximate
Tue 06:52:00 AM 47.3391 158.8134 52° Northeast  Level FlightAware Approximate
Tue 06:53:00 AM 47.4246 158.9761 52° Northeast  Level FlightAware Approximate
Tue 06:54:00 AM 47.5098 159.1393 52° Northeast  Level FlightAware Approximate
Tue 06:55:00 AM 47.5948 159.3030 52° Northeast  Level FlightAware Approximate
Tue 06:56:00 AM 47.6796 159.4673 52° Northeast  Level FlightAware Approximate
Tue 06:57:00 AM 47.7641 159.6320 53° Northeast  Level FlightAware Approximate
Tue 06:58:00 AM 47.8484 159.7974 53° Northeast  Level FlightAware Approximate
Tue 06:59:00 AM 47.9325 159.9632 53° Northeast  Level FlightAware Approximate
Tue 07:00:00 AM 48.0163 160.1296 53° Northeast  Level FlightAware Approximate
Tue 07:00:46 AM 48.2833 160.6833 54° Northeast 533 613 35,000  Level Anchorage Center
Tue 07:12:51 AM 49.1167 162.4667 56° Northeast 533 613 35,000  Level Anchorage Center
Tue 07:13:00 AM 49.3669 163.0480 56° Northeast 533 613 35,000  Level FlightAware Transoceanic
Tue 07:13:16 AM 49.2333 162.7167 56° Northeast 532 612 35,000  Level Anchorage Center
Tue 07:26:06 AM 50.4000 165.5167 73° East 538 619 35,000  Level Anchorage Center
Tue 07:37:51 AM 50.9500 168.1167 76° East 529 609 35,000  Level Anchorage Center
Tue 07:39:01 AM 51.0000 168.3667 77° East 530 610 35,000  Level Anchorage Center
Tue 07:40:00 AM 50.9561 168.6505 76° East 538 619 35,000  Level FlightAware Transoceanic
Tue 07:40:00 AM 51.0333 168.5500 74° East 530 610 35,000  Level Anchorage Center
Tue 07:40:58 AM 51.0833 168.8000 72° East 530 610 35,000  Level Anchorage Center
Tue 07:41:00 AM 50.9925 168.8771 76° East 538 619 35,000  Level FlightAware Transoceanic
Tue 07:41:59 AM 51.1167 169.0000 75° East 540 621 35,000  Level Anchorage Center
Tue 07:42:00 AM 51.0286 169.1041 76° East 538 619 35,000  Level FlightAware Transoceanic
Tue 07:42:59 AM 51.1667 169.2500 72° East 540 621 35,000  Level Anchorage Center
Tue 07:43:00 AM 51.0642 169.3314 76° East 538 619 35,000  Level FlightAware Transoceanic
Tue 07:43:59 AM 51.2000 169.4500 75° East 530 610 35,000  Level Anchorage Center
Tue 07:44:00 AM 51.1542 169.4957 77° East 529 609 35,000  Level FlightAware Transoceanic
Tue 07:45:01 AM 51.2500 169.7000 72° East 550 633 35,000  Level Anchorage Center
Tue 07:46:00 AM 51.2833 169.9500 78° East 540 621 35,000  Level Anchorage Center
Tue 07:46:59 AM 51.3167 170.1500 75° East 540 621 35,000  Level Anchorage Center
Tue 07:47:59 AM 51.3667 170.4000 72° East 540 621 35,000  Level Anchorage Center
Tue 07:48:59 AM 51.4000 170.6000 75° East 540 621 35,000  Level Anchorage Center
Tue 07:50:00 AM 51.4333 170.8500 78° East 540 621 35,000  Level Anchorage Center
Tue 07:51:00 AM 51.4833 171.0500 68° East 530 610 35,000  Level Anchorage Center
Tue 07:52:02 AM 51.5167 171.3000 78° East 520 598 35,000  Level Anchorage Center
Tue 07:53:01 AM 51.5333 171.5667 84° East 540 621 35,000  Level Anchorage Center
Tue 07:54:00 AM 51.5500 171.7667 82° East 540 621 35,000  Level Anchorage Center
Tue 07:55:01 AM 51.5667 172.0333 84° East 540 621 35,000  Level Anchorage Center
Tue 07:56:01 AM 51.5833 172.2333 82° East 540 621 35,000  Level Anchorage Center
Tue 07:57:01 AM 51.6167 172.5000 79° East 530 610 35,000  Level Anchorage Center
Tue 07:58:00 AM 51.6167 172.7000 90° East 540 621 35,000  Level Anchorage Center
Tue 07:59:03 AM 51.6500 172.9667 79° East 540 621 35,000  Level Anchorage Center
Tue 08:00:03 AM 51.6667 173.1667 82° East 540 621 35,000  Level Anchorage Center
Tue 08:01:00 AM 51.6833 173.4333 84° East 540 621 35,000  Level Anchorage Center
Tue 08:02:00 AM 51.7000 173.6833 84° East 530 610 35,000  Level Anchorage Center
Tue 08:03:02 AM 51.7167 173.9000 83° East 540 621 35,000  Level Anchorage Center
Tue 08:04:00 AM 51.7333 174.1500 84° East 540 621 35,000  Level Anchorage Center
Tue 08:05:02 AM 51.7333 174.3667 90° East 550 633 35,000  Level Anchorage Center
Tue 08:06:02 AM 51.7500 174.6333 84° East 550 633 35,000  Level Anchorage Center
Tue 08:07:01 AM 51.7667 174.9000 84° East 550 633 35,000  Level Anchorage Center
Tue 08:08:00 AM 51.7833 175.1000 82° East 550 633 35,000  Level Anchorage Center
Tue 08:09:01 AM 51.8000 175.3667 84° East 550 633 35,000  Level Anchorage Center
Tue 08:10:01 AM 51.8167 175.5833 83° East 540 621 35,000  Level Anchorage Center
Tue 08:11:01 AM 51.8333 175.8500 84° East 530 610 35,000  Level Anchorage Center
Tue 08:12:01 AM 51.8333 176.0500 90° East 540 621 35,000  Level Anchorage Center
Tue 08:13:01 AM 51.8500 176.3167 84° East 540 621 35,000  Level Anchorage Center
Tue 08:14:03 AM 51.8667 176.5833 84° East 520 598 35,000  Level Anchorage Center
Tue 08:15:02 AM 51.8667 176.7833 90° East 520 598 35,000  Level Anchorage Center
Tue 08:16:01 AM 51.8833 177.0333 84° East 520 598 35,000  Level Anchorage Center
Tue 08:17:01 AM 51.8833 177.2333 90° East 510 587 35,000  Level Anchorage Center
Tue 08:18:03 AM 51.8833 177.4833 90° East 520 598 35,000  Level Anchorage Center
Tue 08:19:02 AM 51.9000 177.6833 82° East 510 587 35,000  Level Anchorage Center
Tue 08:20:01 AM 51.9000 177.9333 90° East 510 587 35,000  Level Anchorage Center
Tue 08:21:04 AM 51.9000 178.1333 90° East 510 587 35,000  Level Anchorage Center
Tue 08:22:02 AM 51.9000 178.3833 90° East 510 587 35,000  Level Anchorage Center
Tue 08:23:02 AM 51.9000 178.6500 90° East 500 575 35,000  Level Anchorage Center
Tue 08:24:02 AM 51.9000 178.8500 90° East 510 587 35,000  Level Anchorage Center
Tue 08:25:02 AM 51.9167 179.1000 84° East 510 587 35,000  Level Anchorage Center
Tue 08:26:03 AM 51.9167 179.3000 90° East 510 587 35,000  Level Anchorage Center
Tue 08:27:04 AM 51.9167 179.5500 90° East 510 587 35,000  Level Anchorage Center
Tue 08:28:04 AM 51.9167 179.7500 90° East 500 575 35,000  Level Anchorage Center
Tue 08:29:02 AM 51.9167 -179.9833 90° East 510 587 35,000  Level Anchorage Center
Tue 08:30:02 AM 51.9167 -179.7333 90° East 500 575 35,000  Level Anchorage Center
Tue 08:31:03 AM 51.9000 -179.5500 98° East 500 575 35,000  Level Anchorage Center
Tue 08:43:46 AM 51.8667 -176.6833 86° East 497 572 35,000  Level Anchorage Center
Tue 08:57:50 AM 51.9833 -173.5667 88° East 496 571 35,000  Level Anchorage Center
Tue 09:13:55 AM 52.0000 -170.0000 86° East 492 566 35,000  Level Anchorage Center
Tue 09:24:41 AM 52.0833 -167.6167 88° East 488 562 35,000  Level Anchorage Center
Tue 09:43:23 AM 52.1000 -163.4833 91° East 494 568 35,000  Level Oakland Oceanic (ODAPS)
Tue 09:53:02 AM 52.0333 -161.2833 94° East 410 472 35,000  Level Anchorage Center
Tue 09:54:00 AM 52.0423 -161.0868 93° East 494 568 35,000  Level FlightAware Transoceanic
Tue 09:54:04 AM 52.0333 -161.0667 90° East 480 552 35,000  Level Anchorage Center
Tue 09:55:00 AM 52.0346 -160.8692 93° East 494 568 35,000  Level FlightAware Transoceanic
Tue 09:55:02 AM 52.0167 -160.8333 97° East 490 564 35,000  Level Anchorage Center
Tue 09:58:48 AM 52.0000 -160.0000 86° East 496 571 35,000  Level Oakland Oceanic (ODAPS)
Tue 10:10:58 AM 52.0833 -157.6333 88° East 500 575 35,000  Level Oakland Oceanic (ODAPS)
Tue 10:36:36 AM 52.0500 -151.6000 92° East 519 597 35,000 19 Level Oakland Oceanic (ODAPS)
Tue 10:43:21 AM 52.0000 -150.0000 95° East 492 566 35,600 75 Climbing Oakland Oceanic (ODAPS)
Tue 11:03:16 AM 51.6500 -145.3333 99° East 510 587 37,000 33 Climbing Oakland Oceanic (ODAPS)
Tue 11:26:20 AM 51.0000 -140.0000 101° East 501 577 37,000  Level Oakland Oceanic (ODAPS)
Tue 11:29:47 AM 50.9000 -139.2000 101° East 503 579 37,000  Level Oakland Oceanic (ODAPS)
Tue 11:54:53 AM 50.0833 -133.9667 90° East 550 633 37,000  Level Vancouver Center
Tue 11:55:00 AM 50.0765 -133.8218 106° East 503 579 37,000  Level FlightAware Transoceanic
Tue 11:55:53 AM 50.0500 -133.7833 106° East 470 541 37,000  Level Vancouver Center
Tue 11:56:00 AM 50.0384 -133.6107 106° East 503 579 37,000  Level FlightAware Transoceanic
Tue 11:56:53 AM 50.0167 -133.5833 104° East 460 529 37,000  Level Vancouver Center
Tue 11:57:00 AM 50.0000 -133.4000 89° East 503 579 37,000  Level FlightAware Transoceanic
Tue 11:57:53 AM 49.9833 -133.4000 106° East 460 529 37,000  Level Vancouver Center
Tue 11:58:00 AM 50.0013 -133.1896 90° East 503 579 37,000  Level FlightAware Transoceanic
Tue 11:58:53 AM 49.9833 -133.1833 90° East 470 541 37,000  Level Vancouver Center
Tue 11:59:00 AM 50.0023 -132.9792 90° East 503 579 37,000  Level FlightAware Transoceanic
Tue 11:59:53 AM 49.9667 -133.0000 98° East 460 529 37,000  Level Vancouver Center
Tue 12:00:53 PM 49.9333 -132.7833 103° East 460 529 37,000  Level Vancouver Center
Tue 12:01:53 PM 49.9167 -132.6000 98° East 460 529 37,000  Level Vancouver Center
Tue 12:02:53 PM 49.9000 -132.3833 97° East 460 529 37,000  Level Vancouver Center
Tue 12:03:53 PM 49.8833 -132.2000 98° East 460 529 37,000  Level Vancouver Center
Tue 12:04:53 PM 49.8667 -132.0000 97° East 460 529 37,000  Level Vancouver Center
Tue 12:05:53 PM 49.8500 -131.8167 98° East 460 529 37,000  Level Vancouver Center
Tue 12:06:53 PM 49.8333 -131.6167 97° East 460 529 37,000  Level Vancouver Center
Tue 12:07:53 PM 49.8000 -131.4333 106° East 460 529 37,000  Level Vancouver Center
Tue 12:08:53 PM 49.7833 -131.2500 98° East 460 529 37,000  Level Vancouver Center
Tue 12:09:53 PM 49.7500 -131.0333 103° East 460 529 37,000  Level Vancouver Center
Tue 12:10:53 PM 49.7333 -130.8500 98° East 460 529 37,000  Level Vancouver Center
Tue 12:11:53 PM 49.7167 -130.6500 97° East 450 518 37,000  Level Vancouver Center
Tue 12:12:53 PM 49.7000 -130.4667 98° East 450 518 37,000  Level Vancouver Center
Tue 12:13:53 PM 49.6500 -130.2833 113° Southeast 450 518 37,000  Level Vancouver Center
Tue 12:14:53 PM 49.6500 -130.1000 90° East 450 518 37,000  Level Vancouver Center
Tue 12:15:53 PM 49.6333 -129.8833 97° East 450 518 37,000  Level Vancouver Center
Tue 12:16:53 PM 49.6000 -129.7000 106° East 440 506 37,000  Level Vancouver Center
Tue 12:17:53 PM 49.5833 -129.5500 100° East 440 506 37,000  Level Vancouver Center
Tue 12:18:53 PM 49.5500 -129.3333 103° East 440 506 37,000  Level Vancouver Center
Tue 12:19:53 PM 49.5333 -129.1833 100° East 430 495 37,000  Level Vancouver Center
Tue 12:23:03 PM 49.4734 -128.5842 102° East 423 487 37,000  Level FlightAware ADS-B (CYVR)
Tue 12:25:29 PM 49.4147 -128.1529 102° East 423 487 37,000  Level FlightAware ADS-B (CYVR)
Tue 12:26:10 PM 49.3967 -128.0243 102° East 425 489 37,000  Level FlightAware ADS-B (CYVR)
Tue 12:27:00 PM 49.3764 -127.8791 102° East 427 491 37,000  Level FlightAware ADS-B (CYVR)
Tue 12:27:34 PM 49.3620 -127.7773 102° East 428 493 37,000  Level FlightAware ADS-B (CYVR)
Tue 12:28:23 PM 49.3419 -127.6368 102° East 428 493 37,000  Level FlightAware ADS-B (CYVR)
Tue 12:28:55 PM 49.3285 -127.5439 103° East 427 491 37,000  Level FlightAware ADS-B (CYVR)
Tue 12:30:33 PM 49.2880 -127.2642 103° East 425 489 37,000  Level FlightAware ADS-B (CYVR)
Tue 12:31:35 PM 49.2598 -127.0747 103° East 424 488 37,000  Level FlightAware ADS-B (CYVR)
Tue 12:32:14 PM 49.2420 -126.9554 103° East 424 488 37,000  Level FlightAware ADS-B (CYVR)
Tue 12:32:46 PM 49.2295 -126.8724 103° East 424 488 37,000  Level FlightAware ADS-B (CYVR)
Tue 12:33:34 PM 49.2066 -126.7204 103° East 423 487 37,000  Level FlightAware ADS-B (CYVR)
Tue 12:34:06 PM 49.1934 -126.6340 103° East 422 486 37,000  Level FlightAware ADS-B (CYVR)
Tue 12:34:38 PM 49.1782 -126.5362 103° East 422 486 37,000 -1,161 Level FlightAware ADS-B (CYVR)
Tue 12:35:39 PM 49.1511 -126.3601 104° East 425 489 35,200 -2,304 Descending FlightAware ADS-B (CYVR)
Tue 12:36:43 PM 49.1245 -126.1900 103° East 424 488 32,200 -2,617 Descending FlightAware ADS-B (CYVR)
Tue 12:37:13 PM 49.1083 -126.0868 104° East 418 481 31,100 -2,308 Descending FlightAware ADS-B (CYVR)
Tue 12:37:48 PM 49.0922 -125.9856 104° East 412 474 29,700 -2,240 Descending FlightAware ADS-B (CYVR)
Tue 12:38:28 PM 49.0745 -125.8744 104° East 406 467 28,300 -2,160 Descending FlightAware ADS-B (CYVR)
Tue 12:39:03 PM 49.0590 -125.7785 104° East 398 458 27,000 -2,175 Descending FlightAware ADS-B (CYVR)
Tue 12:39:48 PM 49.0483 -125.6704 90° East 396 456 25,400 -2,056 Descending FlightAware ADS-B (CYVR)
Tue 12:40:51 PM 49.0515 -125.4834 88° East 385 443 23,300 -2,000 Descending FlightAware ADS-B (CYVR)
Tue 12:41:51 PM 49.0550 -125.3283 89° East 376 433 21,300 -1,978 Descending FlightAware ADS-B (CYVR)
Tue 12:42:22 PM 49.0565 -125.2517 88° East 371 427 20,300 -1,935 Descending FlightAware ADS-B (CYVR)
Tue 12:42:53 PM 49.0580 -125.1615 89° East 366 421 19,300 -1,869 Descending FlightAware ADS-B (CYVR)
Tue 12:43:23 PM 49.0595 -125.0843 88° East 361 415 18,400 -1,808 Descending FlightAware ADS-B (CYVR)
Tue 12:44:06 PM 49.0612 -124.9834 88° East 356 410 17,100 -1,838 Descending FlightAware ADS-B (CYVR)
Tue 12:45:14 PM 49.0653 -124.8098 79° East 350 403 15,000 -1,646 Descending FlightAware ADS-B (CYVR)
Tue 12:45:59 PM 49.0907 -124.7056 67° East 332 382 14,000 -1,000 Descending FlightAware ADS-B (CYVR)
Tue 12:46:20 PM 49.0984 -124.6657 83° East 314 361 13,900 -590 Descending FlightAware ADS-B (CYVR)
Tue 12:47:00 PM 49.1080 -124.5738 81° East 312 359 13,400 -1,443 Descending FlightAware ADS-B (CYVR)
Tue 12:47:39 PM 49.1188 -124.4883 76° East 325 374 12,000 -2,113 Descending FlightAware ADS-B (CYVR)
Tue 12:48:11 PM 49.1308 -124.4168 75° East 329 379 10,900 -1,500 Descending FlightAware ADS-B (CYVR)
Tue 12:48:31 PM 49.1429 -124.3754 58° Northeast 321 369 10,700 -621 Descending FlightAware ADS-B (CYVR)
Tue 12:48:40 PM 49.1500 -124.3587 57° Northeast 312 359 10,600 -600 Descending FlightAware ADS-B (CYVR)
Tue 12:49:11 PM 49.1722 -124.3039 58° Northeast 293 337 10,300 -783 Descending FlightAware ADS-B (CYVR)
Tue 12:49:26 PM 49.1835 -124.2760 58° Northeast 291 335 10,000 -1,548 Descending FlightAware ADS-B (FAKM / KIM)
Tue 12:49:42 PM 49.1945 -124.2489 58° Northeast 293 337 9,500 -1,548 Descending FlightAware ADS-B (FAKM / KIM)
Tue 12:49:57 PM 49.2056 -124.2218 58° Northeast 291 335 9,200 -1,200 Descending FlightAware ADS-B (FAKM / KIM)
Tue 12:50:12 PM 49.2155 -124.1973 58° Northeast 287 330 8,900 -800 Descending FlightAware ADS-B (FAKM / KIM)
Tue 12:50:27 PM 49.2252 -124.1737 58° Northeast 280 322 8,800 -581 Descending FlightAware ADS-B (CYVR)
Tue 12:50:43 PM 49.2370 -124.1444 58° Northeast 277 319 8,600 -581 Descending FlightAware ADS-B (FAKM / KIM)
Tue 12:50:58 PM 49.2468 -124.1205 58° Northeast 275 316 8,500 -400 Descending FlightAware ADS-B (FAKM / KIM)
Tue 12:51:13 PM 49.2572 -124.0947 59° Northeast 273 314 8,400 -250 Descending FlightAware ADS-B (FAKM / KIM)
Tue 12:51:22 PM 49.2611 -124.0850 58° Northeast 273 314 8,400 -462 Level FlightAware ADS-B (CYVR)
Tue 12:51:39 PM 49.2748 -124.0512 58° Northeast 272 313 8,200 -545 Descending FlightAware ADS-B (FAKM / KIM)
Tue 12:51:55 PM 49.2841 -124.0280 59° Northeast 271 312 8,100 -286 Descending FlightAware ADS-B (FAKM / KIM)
Tue 12:52:00 PM 49.2872 -124.0183 66° East 268 308 8,100 -400 Level FlightAware ADS-B (FAKM / KIM)
Tue 12:52:10 PM 49.2904 -123.9992 80° East 264 304 8,000 -522 Descending FlightAware ADS-B (FAKM / KIM)
Tue 12:52:23 PM 49.2905 -123.9759 94° East 259 298 7,900 -375 Descending FlightAware ADS-B (CYVR)
Tue 12:52:42 PM 49.2871 -123.9406 98° East 257 296 7,800 -316 Descending FlightAware ADS-B (FAKM / KIM)
Tue 12:53:01 PM 49.2841 -123.9099 99° East 241 277 7,700 -343 Descending FlightAware ADS-B (FAKM / KIM)
Tue 12:53:17 PM 49.2811 -123.8829 100° East 232 267 7,600 -1,161 Descending FlightAware ADS-B (FAKM / KIM)
Tue 12:53:32 PM 49.2784 -123.8584 100° East 237 273 7,100 -1,600 Descending FlightAware ADS-B (FAKM / KIM)
Tue 12:53:47 PM 49.2754 -123.8320 100° East 239 275 6,800 -1,200 Descending FlightAware ADS-B (FAKM / KIM)
Tue 12:54:02 PM 49.2731 -123.8114 100° East 236 272 6,500 -1,135 Descending FlightAware ADS-B (FAKM / KIM)
Tue 12:54:24 PM 49.2692 -123.7758 99° East 232 267 6,100 -1,135 Descending FlightAware ADS-B (CYVR)
Tue 12:54:39 PM 49.2660 -123.7474 100° East 233 268 5,800 -1,000 Descending FlightAware ADS-B (FAKM / KIM)
Tue 12:54:54 PM 49.2633 -123.7225 99° East 234 269 5,600 -1,000 Descending FlightAware ADS-B (FAKM / KIM)
Tue 12:55:09 PM 49.2607 -123.6985 100° East 232 267 5,300 -857 Descending FlightAware ADS-B (FAKM / KIM)
Tue 12:55:15 PM 49.2602 -123.6943 99° East 229 264 5,300 -480 Level FlightAware ADS-B (CYVR)
Tue 12:55:34 PM 49.2566 -123.6644 100° East 215 247 5,100 -343 Descending FlightAware ADS-B (CYVR)
Tue 12:55:50 PM 49.2540 -123.6388 99° East 201 231 5,100  Level FlightAware ADS-B (FAKM / KIM)
Tue 12:56:05 PM 49.2518 -123.6171 100° East 192 221 5,100 -391 Level FlightAware ADS-B (FAKM / KIM)
Tue 12:56:36 PM 49.2473 -123.5766 100° East 179 206 4,800 -735 Descending FlightAware ADS-B (CYVR)
Tue 12:56:54 PM 49.2448 -123.5536 99° East 173 199 4,500 -882 Descending FlightAware ADS-B (FAKM / KIM)
Tue 12:57:10 PM 49.2430 -123.5375 100° East 173 199 4,300 -833 Descending FlightAware ADS-B (FAKM / KIM)
Tue 12:57:30 PM 49.2401 -123.5116 100° East 170 196 4,000 -923 Descending FlightAware ADS-B (CYVR)
Tue 12:57:49 PM 49.2376 -123.4886 100° East 171 197 3,700 -964 Descending FlightAware ADS-B (FAKM / KIM)
Tue 12:58:26 PM 49.2328 -123.4461 100° East 168 193 3,100 -955 Descending FlightAware ADS-B (CYVR)
Tue 12:58:33 PM 49.2323 -123.4420 100° East 168 193 3,000 -800 Descending FlightAware ADS-B (FAKM / KIM)
Tue 12:58:56 PM 49.2288 -123.4104 100° East 169 194 2,700 -857 Descending FlightAware ADS-B (CYVR)
Tue 12:59:15 PM 49.2263 -123.3877 100° East 170 196 2,400 -941 Descending FlightAware ADS-B (FAKM / KIM)
Tue 12:59:47 PM 49.2229 -123.3577 100° East 172 198 1,900 -878 Descending FlightAware ADS-B (CYVR)
Tue 01:00:37 PM 49.2172 -123.3069 99° East 167 192 1,200 -764 Descending FlightAware ADS-B (CYVR)
Tue 01:01:37 PM 49.2085 -123.2297 99° East 143 165 500 -759 Descending FlightAware ADS-B (CYVR)
Tue 01:02:04 PM 49.2058 -123.2066 100° East 146 168 100 -889 Descending FlightAware ADS-B (CYVR)

Login

Don't have an account? Register now (free) for customized features, flight alerts, and more!